Time;durP1;ratioP1;P1;durP2;ratioP2;P2;SDS_P1;SDS_P2;PMS_P1;PMS_P2;Temp;Humidity;BMP_temperature;BMP_pressure;BME280_temperature;BME280_humidity;BME280_pressure;Samples;Min_cycle;Max_cycle;Signal;HPM_P1;HPM_P2
2021/12/10 00:02:09;;;;;;;16.27;6.35;;;2.30;96.60;;;;;;4981197;28;20025;-70
2021/12/10 00:04:37;;;;;;;12.52;6.00;;;2.30;96.50;;;;;;4981767;28;20030;-70
2021/12/10 00:07:28;;;;;;;18.48;7.93;;;2.40;96.40;;;;;;4981432;28;20058;-72
2021/12/10 00:10:01;;;;;;;14.95;5.78;;;2.40;96.30;;;;;;4997528;28;20325;-72
2021/12/10 00:12:40;;;;;;;10.25;5.45;;;2.40;96.50;;;;;;4997227;28;20061;-72
2021/12/10 00:15:07;;;;;;;14.07;6.03;;;2.40;96.60;;;;;;4980701;28;20023;-72
2021/12/10 00:17:33;;;;;;;15.18;5.90;;;2.40;96.50;;;;;;4981783;28;20087;-72
2021/12/10 00:20:01;;;;;;;17.00;6.20;;;2.40;96.40;;;;;;4981452;28;20039;-73
2021/12/10 00:22:46;;;;;;;9.88;4.82;;;2.40;96.40;;;;;;4997556;28;20030;-72
2021/12/10 00:25:18;;;;;;;12.10;5.10;;;2.40;96.40;;;;;;4996840;28;20170;-72
2021/12/10 00:27:44;;;;;;;9.63;5.25;;;2.40;96.50;;;;;;5000975;28;20073;-72
2021/12/10 00:30:18;;;;;;;8.27;3.78;;;2.40;96.50;;;;;;4986333;28;20027;-72
2021/12/10 00:32:59;;;;;;;9.07;4.13;;;2.50;96.60;;;;;;5001274;28;20028;-72
2021/12/10 00:35:27;;;;;;;8.73;4.78;;;2.50;96.60;;;;;;5000805;28;20041;-72
2021/12/10 00:37:52;;;;;;;8.32;4.45;;;2.50;96.60;;;;;;5001520;28;20061;-71
2021/12/10 00:40:19;;;;;;;10.60;4.63;;;2.40;96.70;;;;;;4986631;28;20027;-74
2021/12/10 00:42:45;;;;;;;;;;;2.40;96.80;;;;;;4985815;28;20019;-74
2021/12/10 00:45:13;;;;;;;13.10;4.43;;;2.40;96.90;;;;;;5000801;28;19916;-73
2021/12/10 00:47:39;;;;;;;9.70;4.95;;;2.40;96.90;;;;;;4985881;28;20023;-73
2021/12/10 00:50:10;;;;;;;13.07;4.88;;;2.40;96.90;;;;;;4985929;28;20026;-73
2021/12/10 00:52:36;;;;;;;10.57;4.57;;;2.40;96.90;;;;;;4984939;28;20179;-71
2021/12/10 00:55:02;;;;;;;8.38;4.45;;;2.40;96.80;;;;;;4984347;28;20035;-71
2021/12/10 00:57:28;;;;;;;10.82;5.35;;;2.40;96.80;;;;;;4985417;28;20027;-71
2021/12/10 00:59:54;;;;;;;11.75;5.05;;;2.40;97.10;;;;;;5000784;28;20034;-71
2021/12/10 01:02:22;;;;;;;14.30;5.25;;;2.40;96.90;;;;;;5000661;28;20062;-72
2021/12/10 01:04:51;;;;;;;11.05;4.00;;;2.40;97.00;;;;;;4967188;28;20018;-71
2021/12/10 01:07:20;;;;;;;14.55;5.47;;;2.40;96.80;;;;;;4985561;28;20053;-71
2021/12/10 01:09:49;;;;;;;11.23;4.75;;;2.40;96.70;;;;;;5000559;28;20023;-72
2021/12/10 01:12:30;;;;;;;11.45;5.47;;;2.40;96.90;;;;;;4984396;28;20026;-72
2021/12/10 01:26:25;;;;;;;11.40;4.72;;;2.50;96.70;;;;;;4984308;28;20038;-71
2021/12/10 01:28:57;;;;;;;14.65;4.72;;;2.50;96.70;;;;;;4998067;28;20111;-72
2021/12/10 01:31:23;;;;;;;8.43;4.30;;;2.40;97.00;;;;;;5000402;28;20019;-72
2021/12/10 01:33:50;;;;;;;9.55;4.60;;;2.40;97.10;;;;;;5000072;28;20042;-72
2021/12/10 01:36:16;;;;;;;8.57;5.15;;;2.40;97.00;;;;;;4983832;28;20094;-72
2021/12/10 01:38:44;;;;;;;8.38;4.30;;;2.40;97.20;;;;;;4985274;28;20021;-72
2021/12/10 01:41:13;;;;;;;10.82;4.55;;;2.30;97.40;;;;;;4984091;28;20210;-71
2021/12/10 01:43:40;;;;;;;12.70;4.32;;;2.40;97.20;;;;;;4983903;28;20034;-72
2021/12/10 01:46:12;;;;;;;;;;;2.40;97.10;;;;;;4983824;28;20037;-72
2021/12/10 01:48:46;;;;;;;9.77;4.15;;;2.50;97.20;;;;;;4999916;28;19913;-72
2021/12/10 01:51:15;;;;;;;11.73;4.18;;;2.50;96.90;;;;;;4985231;28;20119;-72
2021/12/10 01:53:42;;;;;;;9.65;4.30;;;2.50;96.80;;;;;;4951978;28;20073;-71
2021/12/10 01:56:14;;;;;;;7.32;3.95;;;2.40;97.00;;;;;;4982781;28;20217;-72
2021/12/10 01:58:40;;;;;;;8.27;3.40;;;2.40;96.90;;;;;;4999102;28;20031;-71
2021/12/10 02:01:18;;;;;;;9.75;4.68;;;2.40;97.00;;;;;;4999347;28;20089;-71
2021/12/10 02:03:44;;;;;;;10.55;3.97;;;2.40;96.90;;;;;;4984684;28;20031;-72
2021/12/10 02:06:10;;;;;;;10.57;3.60;;;2.40;97.10;;;;;;4983278;28;20030;-72
2021/12/10 02:08:36;;;;;;;5.57;3.22;;;2.40;97.10;;;;;;5000962;28;20600;-72
2021/12/10 02:11:03;;;;;;;7.13;3.33;;;2.40;97.20;;;;;;4984686;28;20317;-71
2021/12/10 02:13:29;;;;;;;7.32;4.38;;;2.40;97.20;;;;;;4984783;28;20058;-71
2021/12/10 02:15:55;;;;;;;6.88;3.60;;;2.30;97.20;;;;;;5000400;28;20093;-71
2021/12/10 02:18:21;;;;;;;7.72;3.72;;;2.30;97.20;;;;;;4984788;28;20015;-71
2021/12/10 02:21:10;;;;;;;9.13;3.80;;;2.30;97.30;;;;;;5000774;28;20230;-72
2021/12/10 02:23:42;;;;;;;4.47;2.55;;;2.30;97.30;;;;;;4984997;28;20359;-71
2021/12/10 02:26:11;;;;;;;8.48;3.85;;;2.30;97.30;;;;;;4984078;28;20029;-70
2021/12/10 02:28:37;;;;;;;7.72;4.10;;;2.40;97.00;;;;;;5000580;28;20029;-71
2021/12/10 02:31:03;;;;;;;11.83;3.57;;;2.50;96.80;;;;;;4984343;28;20034;-71
2021/12/10 02:33:29;;;;;;;9.30;3.67;;;2.50;96.50;;;;;;4984043;28;20266;-71
2021/12/10 02:35:55;;;;;;;6.30;2.90;;;2.60;96.50;;;;;;4999657;28;20077;-71
2021/12/10 02:38:22;;;;;;;6.15;3.25;;;2.60;96.50;;;;;;5000440;28;20214;-71
2021/12/10 02:40:49;;;;;;;;;;;2.50;96.50;;;;;;4985666;28;20351;-71
2021/12/10 02:43:15;;;;;;;8.43;3.30;;;2.50;96.70;;;;;;4984073;28;19906;-70
2021/12/10 02:45:43;;;;;;;8.30;2.85;;;2.50;96.70;;;;;;5000347;28;20093;-71
2021/12/10 02:48:09;;;;;;;6.20;3.17;;;2.40;96.80;;;;;;4984981;28;20309;-71
2021/12/10 02:50:35;;;;;;;7.47;3.47;;;2.50;96.70;;;;;;4984405;28;20033;-71
2021/12/10 02:53:01;;;;;;;6.82;3.33;;;2.50;96.50;;;;;;5000126;28;20026;-71
2021/12/10 02:55:28;;;;;;;6.80;2.85;;;2.50;96.50;;;;;;4999813;28;20023;-71
2021/12/10 02:57:57;;;;;;;7.70;3.72;;;2.50;96.50;;;;;;4984308;28;20047;-71
2021/12/10 03:00:27;;;;;;;11.02;3.08;;;2.50;96.50;;;;;;4999527;28;20195;-71
2021/12/10 03:02:53;;;;;;;7.47;3.38;;;2.40;96.70;;;;;;4999969;28;20026;-71
2021/12/10 03:05:19;;;;;;;7.18;3.17;;;2.40;96.60;;;;;;4984191;28;20090;-70
2021/12/10 03:07:45;;;;;;;8.85;3.47;;;2.50;96.50;;;;;;4984255;28;20023;-70
2021/12/10 03:10:22;;;;;;;6.13;3.20;;;2.50;96.50;;;;;;4999706;28;20078;-70
2021/12/10 03:12:48;;;;;;;6.60;3.72;;;2.50;96.40;;;;;;4998429;28;20076;-70
2021/12/10 03:15:15;;;;;;;6.72;3.05;;;2.40;96.50;;;;;;4984314;28;20329;-70
2021/12/10 03:17:42;;;;;;;7.50;3.30;;;2.40;96.60;;;;;;4983478;28;20023;-70
2021/12/10 03:20:10;;;;;;;7.80;2.97;;;2.50;96.60;;;;;;4984107;28;20030;-71
2021/12/10 03:22:37;;;;;;;9.88;3.05;;;2.50;96.40;;;;;;4983322;28;20107;-70
2021/12/10 03:25:09;;;;;;;8.05;3.20;;;2.50;96.30;;;;;;4984112;28;20023;-71
2021/12/10 03:27:35;;;;;;;5.80;2.97;;;2.50;96.40;;;;;;4999474;28;20022;-70
2021/12/10 03:30:01;;;;;;;4.82;3.03;;;2.50;96.30;;;;;;4999278;28;20093;-70
2021/12/10 03:32:29;;;;;;;9.23;3.45;;;2.50;96.30;;;;;;4984292;28;20029;-71
2021/12/10 03:35:00;;;;;;;8.40;2.83;;;2.50;96.40;;;;;;4982615;28;20057;-71
2021/12/10 03:37:27;;;;;;;6.63;3.45;;;2.40;96.50;;;;;;4999383;28;20026;-71
2021/12/10 03:39:52;;;;;;;11.70;3.95;;;2.40;96.60;;;;;;4999045;28;20026;-70
2021/12/10 03:42:19;;;;;;;7.43;3.00;;;2.40;96.70;;;;;;4999121;28;20065;-70
2021/12/10 03:44:45;;;;;;;6.88;3.30;;;2.40;96.60;;;;;;4998571;28;20034;-70
2021/12/10 03:47:11;;;;;;;5.03;2.95;;;2.50;96.50;;;;;;4983065;28;20034;-71
2021/12/10 03:49:37;;;;;;;9.07;3.22;;;2.50;96.30;;;;;;4982588;28;20022;-70
2021/12/10 03:52:04;;;;;;;6.57;3.27;;;2.50;96.40;;;;;;4983985;28;20054;-70
2021/12/10 03:54:30;;;;;;;7.60;3.88;;;2.60;96.20;;;;;;4998456;28;20049;-70
2021/12/10 03:56:56;;;;;;;11.88;3.28;;;2.60;96.10;;;;;;4983338;28;20030;-70
2021/12/10 03:59:22;;;;;;;10.07;3.13;;;2.60;96.10;;;;;;4998969;28;20281;-70
2021/12/10 04:01:55;;;;;;;8.55;3.05;;;2.50;96.30;;;;;;4983041;28;20276;-70
2021/12/10 04:04:43;;;;;;;6.00;3.03;;;2.60;96.10;;;;;;4997705;28;20034;-70
2021/12/10 04:07:13;;;;;;;4.90;2.85;;;2.50;96.20;;;;;;4998807;28;20034;-71
2021/12/10 04:09:40;;;;;;;6.72;2.75;;;2.50;96.20;;;;;;4981996;28;20265;-70
2021/12/10 04:12:08;;;;;;;5.95;3.03;;;2.40;96.30;;;;;;4998459;28;20082;-70
2021/12/10 04:14:36;;;;;;;11.02;3.58;;;2.40;96.30;;;;;;4998207;28;20038;-70
2021/12/10 04:17:03;;;;;;;6.38;3.17;;;2.40;96.30;;;;;;4998600;28;20027;-70
2021/12/10 04:19:29;;;;;;;;;;;2.40;96.30;;;;;;4982290;28;20033;-70
2021/12/10 04:21:56;;;;;;;7.97;2.78;;;2.50;96.30;;;;;;4998768;28;19906;-70
2021/12/10 04:24:26;;;;;;;8.55;2.90;;;2.50;96.00;;;;;;4998199;28;20062;-71
2021/12/10 04:26:52;;;;;;;8.20;2.85;;;2.50;96.00;;;;;;4983567;28;20030;-70
2021/12/10 04:29:20;;;;;;;7.78;3.15;;;2.50;96.10;;;;;;4998546;28;20344;-70
2021/12/10 04:31:48;;;;;;;9.57;3.10;;;2.50;96.20;;;;;;4998308;28;20023;-70
2021/12/10 04:34:14;;;;;;;13.32;4.38;;;2.50;96.10;;;;;;4981764;28;20098;-70
2021/12/10 04:36:39;;;;;;;8.88;3.85;;;2.50;96.30;;;;;;4998553;28;20265;-70
2021/12/10 04:39:05;;;;;;;10.93;3.63;;;2.50;96.10;;;;;;4998572;28;20027;-70
2021/12/10 04:41:31;;;;;;;5.43;3.15;;;2.50;96.20;;;;;;4998509;28;20029;-70
2021/12/10 04:43:57;;;;;;;6.13;3.28;;;2.50;96.20;;;;;;4998403;28;20085;-70
2021/12/10 04:46:23;;;;;;;8.23;3.80;;;2.40;96.40;;;;;;5009931;23;20060;-70
2021/12/10 04:48:53;;;;;;;9.27;4.03;;;2.40;96.50;;;;;;4993556;28;20313;-68
2021/12/10 04:51:21;;;;;;;9.23;4.15;;;2.40;96.40;;;;;;5001701;28;20022;-68
2021/12/10 04:53:48;;;;;;;8.75;4.40;;;2.30;96.60;;;;;;5001712;28;20064;-68
2021/12/10 04:56:14;;;;;;;11.25;4.65;;;2.30;96.80;;;;;;5001135;28;20054;-68
2021/12/10 04:58:40;;;;;;;10.82;4.80;;;2.30;96.80;;;;;;5002120;28;20522;-68
2021/12/10 05:01:06;;;;;;;8.32;4.72;;;2.40;96.50;;;;;;5003160;28;20037;-67
2021/12/10 05:03:32;;;;;;;9.70;4.95;;;2.40;96.30;;;;;;5003005;28;20022;-68
2021/12/10 05:06:02;;;;;;;9.07;5.10;;;2.40;96.30;;;;;;5002445;28;20034;-68
2021/12/10 05:08:30;;;;;;;10.95;5.43;;;2.30;96.80;;;;;;5002191;28;20045;-68
2021/12/10 05:10:56;;;;;;;9.57;4.22;;;2.20;96.70;;;;;;4985824;28;20027;-67
2021/12/10 05:13:22;;;;;;;10.77;4.38;;;2.20;96.80;;;;;;4986366;28;20025;-68
2021/12/10 05:15:55;;;;;;;13.02;5.40;;;2.30;96.70;;;;;;4988970;28;20019;-68
2021/12/10 05:18:21;;;;;;;11.27;4.80;;;2.20;96.50;;;;;;5003769;28;20019;-68
2021/12/10 05:20:48;;;;;;;9.63;4.97;;;2.20;96.60;;;;;;4986541;28;20081;-68
2021/12/10 05:23:18;;;;;;;12.40;5.45;;;2.20;96.50;;;;;;4986508;28;20120;-68
2021/12/10 05:25:43;;;;;;;11.02;4.40;;;2.20;96.60;;;;;;4972425;28;20042;-68
2021/12/10 05:28:10;;;;;;;11.65;5.43;;;2.10;96.60;;;;;;4990080;28;20018;-67
2021/12/10 05:30:36;;;;;;;10.00;5.17;;;2.00;96.60;;;;;;4990660;28;20023;-69
2021/12/10 05:33:02;;;;;;;13.02;5.55;;;2.00;96.50;;;;;;4988893;28;20322;-68
2021/12/10 05:35:30;;;;;;;17.60;6.25;;;2.00;96.50;;;;;;4971912;28;20090;-68
2021/12/10 05:37:56;;;;;;;15.70;5.65;;;1.90;96.50;;;;;;4986263;28;20229;-68
2021/12/10 05:40:23;;;;;;;12.52;6.13;;;1.80;96.70;;;;;;4986955;28;20053;-67
2021/12/10 05:42:49;;;;;;;13.90;5.97;;;1.70;96.80;;;;;;4985571;28;20070;-68
2021/12/10 05:45:16;;;;;;;13.60;5.45;;;1.60;97.00;;;;;;4985838;28;20022;-67
2021/12/10 05:47:41;;;;;;;13.07;5.80;;;1.60;97.10;;;;;;4984850;28;20222;-68
2021/12/10 05:50:09;;;;;;;13.73;6.03;;;1.50;97.20;;;;;;4976896;28;20031;-67
2021/12/10 05:52:35;;;;;;;15.38;6.65;;;1.50;97.30;;;;;;4976043;28;20329;-67
2021/12/10 05:55:01;;;;;;;14.95;6.57;;;1.40;97.50;;;;;;4974894;28;20023;-67
2021/12/10 05:57:27;;;;;;;16.50;7.28;;;1.30;97.60;;;;;;4975030;28;20027;-68
2021/12/10 05:59:52;;;;;;;13.07;6.18;;;1.20;97.80;;;;;;4966679;28;20337;-67
2021/12/10 06:02:18;;;;;;;13.52;6.38;;;1.10;97.90;;;;;;4974204;28;20418;-68
2021/12/10 06:04:45;;;;;;;13.02;6.30;;;1.10;98.00;;;;;;4985170;28;20400;-69
2021/12/10 06:07:11;;;;;;;14.30;5.95;;;1.10;98.00;;;;;;4968362;28;20029;-70
2021/12/10 06:09:37;;;;;;;16.17;7.13;;;1.10;98.00;;;;;;4985118;28;20038;-70
2021/12/10 06:12:03;;;;;;;16.38;6.80;;;1.00;97.90;;;;;;4980000;28;20061;-70
2021/12/10 06:14:29;;;;;;;18.90;8.00;;;1.00;98.10;;;;;;4983753;28;20202;-70
2021/12/10 06:16:55;;;;;;;17.75;7.82;;;0.90;98.10;;;;;;4984056;28;20023;-69
2021/12/10 06:19:21;;;;;;;21.55;7.82;;;0.80;98.30;;;;;;4985451;28;20046;-69
2021/12/10 06:21:47;;;;;;;17.30;8.45;;;1.00;98.30;;;;;;4985252;28;20061;-69
2021/12/10 06:24:13;;;;;;;18.70;7.60;;;0.90;98.30;;;;;;4984281;28;20034;-69
2021/12/10 06:26:39;;;;;;;16.85;7.88;;;0.90;98.00;;;;;;4985127;28;20310;-69
2021/12/10 06:29:05;;;;;;;18.23;8.82;;;0.80;98.10;;;;;;4981811;28;20082;-67
2021/12/10 06:31:31;;;;;;;16.43;8.73;;;0.80;98.20;;;;;;4973058;28;20194;-69
2021/12/10 06:33:58;;;;;;;15.63;7.87;;;0.80;98.10;;;;;;4980247;28;20080;-68
2021/12/10 06:36:24;;;;;;;18.35;8.63;;;0.80;98.10;;;;;;4984640;28;20023;-68
2021/12/10 06:38:50;;;;;;;19.33;8.53;;;0.90;98.10;;;;;;4975119;28;20083;-68
2021/12/10 06:41:16;;;;;;;19.73;8.98;;;0.90;97.90;;;;;;4978717;28;20488;-69
2021/12/10 06:43:42;;;;;;;22.90;8.70;;;0.80;97.90;;;;;;4980413;28;20103;-68
2021/12/10 06:46:07;;;;;;;20.10;8.65;;;0.80;97.80;;;;;;4975741;28;20093;-69
2021/12/10 06:48:34;;;;;;;20.05;9.48;;;0.80;98.00;;;;;;4984610;28;20037;-68
2021/12/10 06:51:05;;;;;;;19.98;8.27;;;0.80;98.10;;;;;;4984723;28;20229;-68
2021/12/10 06:53:31;;;;;;;19.75;9.20;;;0.60;98.10;;;;;;4969373;28;20335;-68
2021/12/10 06:56:00;;;;;;;18.40;9.13;;;0.70;98.20;;;;;;4964053;29;20054;-68
2021/12/10 06:58:27;;;;;;;19.73;9.23;;;0.60;98.20;;;;;;4965139;28;20065;-69
2021/12/10 07:01:14;;;;;;;22.67;8.88;;;0.60;98.30;;;;;;4964968;28;20030;-69
2021/12/10 07:03:40;;;;;;;20.70;9.30;;;0.60;98.20;;;;;;4965055;28;20033;-69
2021/12/10 07:06:06;;;;;;;23.67;9.20;;;0.60;98.20;;;;;;4964719;28;20326;-69
2021/12/10 07:08:33;;;;;;;19.00;8.30;;;0.70;98.20;;;;;;4965112;28;20031;-69
2021/12/10 07:10:59;;;;;;;21.38;9.13;;;0.70;98.10;;;;;;4969643;28;20027;-69
2021/12/10 07:13:25;;;;;;;18.98;8.77;;;0.60;98.10;;;;;;4983978;28;20033;-69
2021/12/10 07:15:52;;;;;;;19.65;8.15;;;0.50;98.20;;;;;;4984460;28;20022;-69
2021/12/10 07:18:19;;;;;;;;;;;0.50;98.40;;;;;;4984697;28;20094;-69
2021/12/10 07:20:45;;;;;;;17.20;7.97;;;0.60;98.30;;;;;;4983392;28;19906;-69
2021/12/10 07:23:11;;;;;;;21.48;9.80;;;0.60;98.20;;;;;;4984319;28;20027;-69
2021/12/10 07:25:37;;;;;;;17.77;8.88;;;0.50;98.30;;;;;;4983603;28;20026;-69
2021/12/10 07:28:03;;;;;;;28.10;10.20;;;0.50;98.30;;;;;;4984294;28;20344;-69
2021/12/10 07:30:29;;;;;;;30.13;10.25;;;0.50;98.40;;;;;;4982746;28;20081;-69
2021/12/10 07:32:55;;;;;;;24.90;11.23;;;0.60;98.40;;;;;;4983878;28;20025;-69
2021/12/10 07:35:21;;;;;;;25.70;9.73;;;0.80;98.10;;;;;;4982870;28;20042;-69
2021/12/10 07:37:47;;;;;;;21.48;9.77;;;0.90;97.70;;;;;;4984163;28;20030;-69
2021/12/10 07:40:20;;;;;;;25.27;10.48;;;1.00;97.60;;;;;;4983845;28;20321;-69
2021/12/10 07:42:46;;;;;;;24.08;10.43;;;1.00;97.40;;;;;;4984014;28;20355;-69
2021/12/10 07:45:13;;;;;;;23.63;9.00;;;1.00;97.40;;;;;;4982193;28;20038;-69
2021/12/10 07:47:38;;;;;;;21.83;9.70;;;1.00;97.40;;;;;;4983756;28;20223;-69
2021/12/10 07:50:13;;;;;;;16.50;7.32;;;1.10;97.30;;;;;;4982506;28;20046;-69
2021/12/10 07:52:40;;;;;;;24.27;10.70;;;1.10;97.10;;;;;;4983577;28;20033;-69
2021/12/10 07:55:09;;;;;;;24.48;10.15;;;1.10;96.80;;;;;;4966112;28;20046;-69
2021/12/10 07:57:35;;;;;;;24.25;9.70;;;1.20;96.80;;;;;;4983749;28;20034;-69
2021/12/10 08:00:06;;;;;;;19.73;9.05;;;1.20;96.80;;;;;;4983686;28;20229;-69
2021/12/10 08:02:32;;;;;;;20.33;8.77;;;1.20;96.90;;;;;;4982778;28;20077;-70
2021/12/10 08:04:58;;;;;;;19.52;9.43;;;1.30;96.60;;;;;;4965815;28;20037;-69
2021/12/10 08:07:25;;;;;;;24.97;9.70;;;1.30;96.40;;;;;;4983478;28;20034;-69
2021/12/10 08:09:51;;;;;;;;;;;1.30;96.40;;;;;;4982916;28;20030;-70
2021/12/10 08:12:17;;;;;;;20.50;8.38;;;1.30;96.40;;;;;;4983470;28;20113;-69
2021/12/10 08:14:45;;;;;;;22.67;9.23;;;1.40;96.10;;;;;;4980837;28;20034;-69
2021/12/10 08:17:11;;;;;;;25.08;9.55;;;1.40;96.00;;;;;;4983331;28;20026;-70
2021/12/10 08:19:37;;;;;;;18.35;8.77;;;1.40;95.90;;;;;;4998398;28;20089;-70
2021/12/10 08:22:04;;;;;;;20.10;9.00;;;1.50;96.00;;;;;;4982900;28;20038;-70
2021/12/10 08:24:29;;;;;;;24.45;9.57;;;1.50;96.00;;;;;;4966025;28;20277;-69
2021/12/10 08:26:55;;;;;;;21.08;9.00;;;1.50;96.10;;;;;;4983256;28;20085;-70
2021/12/10 08:29:22;;;;;;;21.85;8.40;;;1.50;96.00;;;;;;4983058;28;20110;-69
2021/12/10 08:31:48;;;;;;;17.10;8.00;;;1.60;95.70;;;;;;4982048;28;20023;-69
2021/12/10 08:34:14;;;;;;;21.83;9.18;;;1.60;95.50;;;;;;4983132;28;20284;-72
2021/12/10 08:36:40;;;;;;;20.73;9.43;;;1.60;96.50;;;;;;4979497;28;20039;-66
2021/12/10 08:39:07;;;;;;;18.30;7.80;;;1.70;95.90;;;;;;4983171;28;20033;-67
2021/12/10 08:41:34;;;;;;;20.70;9.63;;;1.90;96.80;;;;;;4981408;28;20027;-69
2021/12/10 08:44:01;;;;;;;17.95;8.10;;;2.00;96.10;;;;;;4982987;28;20085;-68
2021/12/10 08:46:27;;;;;;;18.05;7.68;;;2.00;95.20;;;;;;4982546;28;20345;-68
2021/12/10 08:48:53;;;;;;;19.37;7.87;;;2.00;94.80;;;;;;4983732;28;20242;-70
2021/12/10 08:51:32;;;;;;;18.52;7.95;;;2.00;94.60;;;;;;4974387;28;20253;-70
2021/12/10 08:54:00;;;;;;;18.00;8.05;;;2.00;94.40;;;;;;4986898;28;20031;-68
2021/12/10 08:56:26;;;;;;;17.08;7.90;;;2.00;94.40;;;;;;4986140;28;20027;-69
2021/12/10 08:58:52;;;;;;;22.77;9.00;;;2.10;94.50;;;;;;4987851;28;20217;-68
2021/12/10 09:01:27;;;;;;;21.17;7.97;;;2.10;94.70;;;;;;5003242;28;20101;-68
2021/12/10 09:03:54;;;;;;;20.70;8.38;;;2.20;94.20;;;;;;4988280;28;20073;-69
2021/12/10 09:06:25;;;;;;;18.45;8.20;;;2.20;94.10;;;;;;4987931;28;20026;-68
2021/12/10 09:08:51;;;;;;;17.70;7.75;;;2.20;94.10;;;;;;4987653;28;20296;-68
2021/12/10 09:11:17;;;;;;;15.40;6.95;;;2.30;93.50;;;;;;4987127;28;20023;-69
2021/12/10 09:13:42;;;;;;;19.27;7.72;;;2.30;93.50;;;;;;4986321;28;20027;-69
2021/12/10 09:16:20;;;;;;;18.35;6.70;;;2.30;93.00;;;;;;4984341;28;20019;-68
2021/12/10 09:18:46;;;;;;;10.45;5.82;;;2.20;92.80;;;;;;4986251;28;20018;-69
2021/12/10 09:21:12;;;;;;;16.55;8.35;;;2.30;92.90;;;;;;4984197;28;20310;-69
2021/12/10 09:23:38;;;;;;;14.05;6.47;;;2.30;93.00;;;;;;4986553;28;20038;-68
2021/12/10 09:26:09;;;;;;;15.32;7.10;;;2.30;92.20;;;;;;4985577;28;20082;-67
2021/12/10 09:28:36;;;;;;;13.30;6.22;;;2.30;92.30;;;;;;4985213;28;20022;-69
2021/12/10 09:31:02;;;;;;;13.70;6.65;;;2.30;92.70;;;;;;4984669;28;20050;-69
2021/12/10 09:33:28;;;;;;;13.65;5.85;;;2.50;92.70;;;;;;4985853;28;20045;-68
2021/12/10 09:35:54;;;;;;;14.63;6.65;;;2.50;92.10;;;;;;4983599;28;20054;-68
2021/12/10 09:38:22;;;;;;;15.23;6.80;;;2.60;92.00;;;;;;4986077;28;20074;-69
2021/12/10 09:40:52;;;;;;;14.20;7.68;;;2.70;92.20;;;;;;4986011;28;20022;-69
2021/12/10 09:43:18;;;;;;;20.23;7.22;;;2.80;92.30;;;;;;4986178;28;20042;-69
2021/12/10 09:45:44;;;;;;;13.38;6.03;;;2.80;92.10;;;;;;4985472;28;20041;-69
2021/12/10 09:48:13;;;;;;;14.13;6.18;;;2.80;92.10;;;;;;4985816;28;20043;-69
2021/12/10 09:51:03;;;;;;;12.77;5.95;;;2.90;92.20;;;;;;4978412;28;20061;-68
2021/12/10 09:53:29;;;;;;;16.10;7.85;;;3.10;92.00;;;;;;4985609;28;20034;-68
2021/12/10 09:55:56;;;;;;;12.07;6.35;;;3.20;91.10;;;;;;4984728;28;20106;-70
2021/12/10 09:58:22;;;;;;;19.67;7.65;;;3.20;91.30;;;;;;4985664;28;20022;-69
2021/12/10 10:00:52;;;;;;;19.35;7.45;;;3.20;91.30;;;;;;4985784;28;20352;-69
2021/12/10 10:03:21;;;;;;;13.45;6.72;;;3.40;91.40;;;;;;4982798;28;20033;-69
2021/12/10 10:05:47;;;;;;;14.45;7.43;;;3.40;91.10;;;;;;4981414;28;20113;-68
2021/12/10 10:08:18;;;;;;;16.67;7.33;;;3.50;90.80;;;;;;4985516;28;20510;-69
2021/12/10 10:10:47;;;;;;;17.25;6.60;;;3.70;90.40;;;;;;4985792;28;20050;-70
2021/12/10 10:13:14;;;;;;;14.43;6.50;;;3.70;89.50;;;;;;4984373;28;20033;-69
2021/12/10 10:15:41;;;;;;;15.13;6.43;;;3.90;89.60;;;;;;4984526;28;20348;-70
2021/12/10 10:18:09;;;;;;;15.15;6.53;;;4.10;87.50;;;;;;4985386;28;20264;-69
2021/12/10 10:20:37;;;;;;;13.77;5.80;;;4.40;87.70;;;;;;4984592;28;20329;-70
2021/12/10 10:23:04;;;;;;;13.32;5.38;;;4.60;86.90;;;;;;4984722;28;20093;-70
2021/12/10 10:25:31;;;;;;;;;;;4.90;85.50;;;;;;4985612;28;20095;-67
2021/12/10 10:27:57;;;;;;;12.75;4.63;;;5.00;83.00;;;;;;4985333;28;19906;-68
2021/12/10 10:30:30;;;;;;;9.53;5.27;;;5.00;82.90;;;;;;4985458;28;20026;-67
2021/12/10 10:33:02;;;;;;;9.93;4.35;;;5.20;82.80;;;;;;4984774;28;20022;-68
2021/12/10 10:35:33;;;;;;;9.25;4.18;;;6.10;79.20;;;;;;4977727;28;20019;-68
2021/12/10 10:37:59;;;;;;;12.13;4.60;;;6.70;75.40;;;;;;4967091;28;20050;-68
2021/12/10 10:40:34;;;;;;;7.63;3.50;;;7.40;71.20;;;;;;4985059;28;20054;-68
2021/12/10 10:43:00;;;;;;;7.80;3.97;;;7.50;69.50;;;;;;4984988;28;20081;-67
2021/12/10 10:45:29;;;;;;;9.77;3.88;;;7.90;69.20;;;;;;4984295;28;20057;-68
2021/12/10 10:50:28;;;;;;;7.03;3.95;;;9.30;61.90;;;;;;5019283;28;20042;-69
2021/12/10 10:52:58;;;;;;;6.40;3.58;;;9.50;60.50;;;;;;5023160;28;20192;-70
2021/12/10 10:55:31;;;;;;;5.80;3.50;;;9.60;60.20;;;;;;5021361;28;20041;-69
2021/12/10 10:58:07;;;;;;;6.50;3.70;;;9.40;59.60;;;;;;5022387;28;20022;-70
2021/12/10 11:00:52;;;;;;;10.55;4.25;;;9.40;60.60;;;;;;5021553;28;20036;-69
2021/12/10 11:03:25;;;;;;;10.30;3.10;;;9.60;59.30;;;;;;5021236;28;20313;-66
2021/12/10 11:05:57;;;;;;;7.22;3.30;;;9.20;60.80;;;;;;5020624;28;20052;-66
2021/12/10 11:08:32;;;;;;;4.82;3.17;;;8.80;61.90;;;;;;5022031;28;20032;-66
2021/12/10 11:11:14;;;;;;;4.82;3.08;;;8.50;62.60;;;;;;5019810;28;20025;-65
2021/12/10 11:13:40;;;;;;;5.90;3.35;;;8.30;65.70;;;;;;5022127;28;20049;-66
2021/12/10 11:16:09;;;;;;;8.57;3.77;;;7.90;64.30;;;;;;5022720;28;20212;-70
2021/12/10 11:18:54;;;;;;;7.90;3.65;;;7.90;64.60;;;;;;5021274;28;20332;-70
2021/12/10 11:21:42;;;;;;;6.95;3.13;;;7.70;65.20;;;;;;5022645;28;20049;-71
2021/12/10 11:24:11;;;;;;;5.63;2.97;;;7.70;64.70;;;;;;5022573;28;20068;-71
2021/12/10 11:27:00;;;;;;;4.50;2.53;;;7.40;67.20;;;;;;5022564;28;20071;-71
2021/12/10 11:29:50;;;;;;;7.20;2.53;;;7.20;67.60;;;;;;5008244;28;20041;-71
2021/12/10 11:32:54;;;;;;;11.00;4.00;;;7.10;67.90;;;;;;5022891;28;20022;-70
2021/12/10 11:35:21;;;;;;;6.93;2.53;;;7.00;66.30;;;;;;5017629;28;20038;-72
2021/12/10 11:38:07;;;;;;;;;;;6.90;67.00;;;;;;5022370;28;20022;-73
2021/12/10 11:40:44;;;;;;;5.55;2.22;;;6.70;68.20;;;;;;5020959;28;20137;-72
2021/12/10 11:49:08;;;;;;;5.13;2.50;;;6.30;70.10;;;;;;5011344;28;20037;-73
2021/12/10 11:51:40;;;;;;;8.65;2.88;;;6.10;72.40;;;;;;5020762;28;20211;-72
2021/12/10 11:54:38;;;;;;;8.07;2.45;;;5.80;74.20;;;;;;5020563;28;20022;-72
2021/12/10 11:57:15;;;;;;;6.88;2.47;;;5.90;73.10;;;;;;5020930;28;20026;-72
2021/12/10 11:59:59;;;;;;;7.82;2.75;;;6.10;72.60;;;;;;5021659;28;20040;-72
2021/12/10 12:02:35;;;;;;;6.28;2.45;;;6.00;73.20;;;;;;5021526;28;20113;-72
2021/12/10 12:05:13;;;;;;;4.20;1.95;;;6.10;73.80;;;;;;5020244;28;20021;-72
2021/12/10 12:07:41;;;;;;;7.90;2.50;;;6.20;73.50;;;;;;5020473;28;20045;-73
2021/12/10 12:10:26;;;;;;;3.38;1.80;;;6.30;72.40;;;;;;5020028;28;20403;-72
2021/12/10 12:12:59;;;;;;;4.75;1.98;;;6.40;70.50;;;;;;4988974;28;20265;-72
2021/12/10 12:15:37;;;;;;;4.22;2.13;;;6.40;71.50;;;;;;5020399;28;20080;-71
2021/12/10 12:18:14;;;;;;;3.72;1.73;;;6.30;71.00;;;;;;5020992;28;20220;-72
2021/12/10 12:20:43;;;;;;;3.92;1.88;;;6.10;70.60;;;;;;5022426;28;20025;-72
2021/12/10 12:26:26;;;;;;;6.50;1.85;;;5.80;72.30;;;;;;5013064;28;20033;-72
2021/12/10 12:28:57;;;;;;;4.07;1.95;;;5.70;72.20;;;;;;5027251;28;20034;-71
2021/12/10 12:31:27;;;;;;;4.85;1.90;;;5.70;72.90;;;;;;4993629;28;20021;-72
2021/12/10 12:34:00;;;;;;;6.43;2.70;;;5.70;72.70;;;;;;5025537;28;20048;-72
2021/12/10 12:36:40;;;;;;;3.38;1.88;;;5.60;73.30;;;;;;5026054;28;20022;-73
2021/12/10 12:39:44;;;;;;;3.17;1.75;;;5.50;74.50;;;;;;5026644;28;20025;-72
2021/12/10 12:42:37;;;;;;;7.88;2.20;;;5.50;75.90;;;;;;5013983;28;20025;-73
2021/12/10 12:45:14;;;;;;;6.07;2.38;;;5.40;77.80;;;;;;5026704;28;20037;-72
2021/12/10 12:47:42;;;;;;;5.55;2.58;;;5.20;78.40;;;;;;5026104;28;20022;-72
2021/12/10 12:50:16;;;;;;;5.13;2.50;;;5.10;79.70;;;;;;5026398;28;20185;-72
2021/12/10 12:52:45;;;;;;;4.40;2.67;;;4.90;80.00;;;;;;5025897;28;20036;-72
2021/12/10 12:55:19;;;;;;;6.95;2.42;;;4.80;80.70;;;;;;5026528;28;20029;-73
2021/12/10 12:58:00;;;;;;;4.43;2.35;;;4.70;81.80;;;;;;5027230;28;20197;-72
2021/12/10 13:00:37;;;;;;;5.10;2.30;;;4.70;81.50;;;;;;5025882;28;20079;-72
2021/12/10 13:03:12;;;;;;;3.22;2.22;;;4.70;82.10;;;;;;5024609;28;20029;-73
2021/12/10 13:05:49;;;;;;;4.85;2.10;;;4.70;82.50;;;;;;5023980;28;20037;-73
2021/12/10 13:08:23;;;;;;;9.63;2.93;;;4.70;82.60;;;;;;5025587;28;20033;-72
2021/12/10 13:11:25;;;;;;;5.30;2.55;;;4.60;82.90;;;;;;5009304;28;20339;-73
2021/12/10 13:13:59;;;;;;;4.75;2.28;;;4.50;83.30;;;;;;5011441;28;20034;-72
2021/12/10 13:16:46;;;;;;;4.35;2.53;;;4.50;83.50;;;;;;5009300;28;20141;-72
2021/12/10 13:19:25;;;;;;;5.40;2.47;;;4.50;83.50;;;;;;5008125;28;20332;-72
2021/12/10 13:21:58;;;;;;;6.65;2.88;;;4.50;84.10;;;;;;4992010;28;20029;-73
2021/12/10 13:24:24;;;;;;;3.70;1.98;;;4.40;84.70;;;;;;5010144;28;20029;-72
2021/12/10 13:26:49;;;;;;;10.07;3.10;;;4.40;84.10;;;;;;5027102;28;20033;-70
2021/12/10 13:29:16;;;;;;;8.93;2.72;;;4.50;84.00;;;;;;5026990;28;20029;-72